Time;durP1;ratioP1;P1;durP2;ratioP2;P2;SDS_P1;SDS_P2;PMS_P1;PMS_P2;Temp;Humidity;BMP_temperature;BMP_pressure;BME280_temperature;BME280_humidity;BME280_pressure;Samples;Min_cycle;Max_cycle;Signal;HPM_P1;HPM_P2
2022/03/12 00:00:21;;;;;;;19.58;7.68;;;;;;;1.52;47.42;102048.97;4925177;29;20047;-78
2022/03/12 00:02:50;;;;;;;14.38;7.53;;;;;;;1.48;48.20;102056.91;4931363;29;20146;-77
2022/03/12 00:05:15;;;;;;;14.02;7.35;;;;;;;1.49;47.61;102053.44;4930357;28;20035;-76
2022/03/12 00:07:42;;;;;;;18.35;7.85;;;;;;;1.40;48.00;102049.44;4948665;29;20090;-77
2022/03/12 00:10:13;;;;;;;17.23;8.15;;;;;;;1.43;48.38;102051.91;4930352;29;20028;-78
2022/03/12 00:12:40;;;;;;;17.77;8.00;;;;;;;1.33;48.12;102038.44;4936413;29;20028;-77
2022/03/12 00:15:10;;;;;;;16.00;7.68;;;;;;;1.40;48.25;102048.59;4933765;29;20553;-76
2022/03/12 00:17:39;;;;;;;17.88;7.68;;;;;;;1.38;48.27;102046.06;4935128;29;20040;-76
2022/03/12 00:20:09;;;;;;;15.32;7.45;;;;;;;1.39;48.07;102036.56;4951637;29;20059;-78
2022/03/12 00:22:37;;;;;;;16.23;8.25;;;;;;;1.42;48.22;102044.22;4934287;29;20043;-77
2022/03/12 00:25:07;;;;;;;15.10;7.15;;;;;;;1.39;47.96;102047.72;4938960;28;20260;-78
2022/03/12 00:27:33;;;;;;;16.63;7.80;;;;;;;1.30;48.67;102043.75;4950543;28;20032;-78
2022/03/12 00:30:00;;;;;;;16.80;8.25;;;;;;;1.23;48.89;102042.28;4951419;29;20505;-78
2022/03/12 00:32:27;;;;;;;19.17;8.50;;;;;;;1.17;48.75;102037.34;4917893;29;20127;-79
2022/03/12 00:34:52;;;;;;;19.35;8.32;;;;;;;1.11;49.38;102028.06;4933727;29;20032;-78
2022/03/12 00:37:19;;;;;;;15.10;7.85;;;;;;;1.19;48.53;102037.25;4935581;29;20051;-79
2022/03/12 00:39:47;;;;;;;20.50;7.53;;;;;;;1.12;48.97;102032.31;4931280;28;20042;-79
2022/03/12 00:42:13;;;;;;;16.77;7.85;;;;;;;1.11;48.81;102038.41;4931517;29;20044;-79
2022/03/12 00:44:39;;;;;;;17.00;7.97;;;;;;;1.10;49.39;102028.09;4946055;29;20038;-78
2022/03/12 00:47:05;;;;;;;18.85;8.20;;;;;;;1.08;48.83;102029.91;4949116;29;20053;-79
2022/03/12 00:49:30;;;;;;;15.52;7.25;;;;;;;1.08;48.74;102024.72;4948980;28;20211;-79
2022/03/12 00:51:56;;;;;;;15.68;7.68;;;;;;;1.04;48.84;102031.75;4934620;29;20040;-79
2022/03/12 00:54:22;;;;;;;18.02;7.97;;;;;;;1.02;48.62;102038.72;4935016;29;20098;-78
2022/03/12 00:56:47;;;;;;;15.48;6.82;;;;;;;1.00;48.87;102017.25;4909613;29;20122;-78
2022/03/12 00:59:13;;;;;;;16.77;8.10;;;;;;;1.01;48.41;102029.25;4922019;29;20525;-78
2022/03/12 01:01:39;;;;;;;14.32;7.55;;;;;;;0.96;49.00;102025.97;4916981;29;20027;-78
2022/03/12 01:04:05;;;;;;;14.13;7.45;;;;;;;0.96;49.21;102020.81;4934121;29;20043;-79
2022/03/12 01:06:34;;;;;;;14.63;7.65;;;;;;;1.02;48.90;102022.34;4916950;29;20063;-78
2022/03/12 01:09:00;;;;;;;20.35;7.97;;;;;;;1.03;48.66;102031.78;4936907;29;20137;-80
2022/03/12 01:11:26;;;;;;;16.77;7.80;;;;;;;0.93;49.18;102037.28;4918860;29;20040;-78
2022/03/12 01:13:52;;;;;;;14.60;7.40;;;;;;;0.90;49.17;102011.53;4934482;29;20043;-80
2022/03/12 01:16:18;;;;;;;16.23;7.25;;;;;;;0.91;49.73;102033.06;4933460;29;20039;-79
2022/03/12 01:18:44;;;;;;;16.38;7.35;;;;;;;0.86;49.83;102029.78;4919824;29;20039;-79
2022/03/12 01:21:17;;;;;;;17.10;7.55;;;;;;;0.75;50.30;102022.38;4917378;29;20352;-79
2022/03/12 01:23:45;;;;;;;14.13;6.85;;;;;;;0.73;49.79;102029.34;4952277;28;20055;-80
2022/03/12 01:26:12;;;;;;;17.88;7.88;;;;;;;0.76;49.79;102034.44;4952900;28;20554;-78
2022/03/12 01:28:40;;;;;;;16.23;7.65;;;;;;;0.74;49.76;102036.22;4939295;29;20183;-79
2022/03/12 01:31:06;;;;;;;14.68;7.57;;;;;;;0.74;49.74;102025.88;4938088;29;20038;-77
2022/03/12 01:33:32;;;;;;;16.33;7.72;;;;;;;0.64;50.06;102015.03;4953684;29;20118;-78
2022/03/12 01:35:58;;;;;;;16.20;6.80;;;;;;;0.63;50.17;102025.41;4956182;29;20070;-78
2022/03/12 01:38:51;;;;;;;16.70;7.78;;;;;;;0.62;49.80;102023.69;4955144;28;20058;-79
2022/03/12 01:41:30;;;;;;;13.95;7.25;;;;;;;0.60;50.05;102016.00;4941953;28;20056;-78
2022/03/12 01:43:57;;;;;;;15.77;7.60;;;;;;;0.61;49.78;102016.88;4937803;29;20040;-80
2022/03/12 01:46:34;;;;;;;18.52;7.88;;;;;;;0.54;49.58;102019.63;4935978;29;20039;-79
2022/03/12 01:49:08;;;;;;;14.98;7.30;;;;;;;0.60;49.15;102020.31;4930317;29;20634;-78
2022/03/12 01:51:34;;;;;;;13.60;7.20;;;;;;;0.54;49.93;102019.63;4957328;29;20036;-79
2022/03/12 01:54:02;;;;;;;15.07;7.20;;;;;;;0.49;50.20;102012.94;4956710;28;20065;-78
2022/03/12 01:56:28;;;;;;;16.88;7.70;;;;;;;0.48;49.96;102011.25;4952615;28;20378;-78
2022/03/12 01:58:54;;;;;;;16.48;7.32;;;;;;;0.39;50.33;102002.06;4951883;29;20414;-78
2022/03/12 02:01:21;;;;;;;18.08;7.63;;;;;;;0.48;50.01;102006.94;4961957;28;20061;-77
2022/03/12 02:03:48;;;;;;;16.23;7.18;;;;;;;0.34;50.12;101997.06;4943712;29;20119;-79
2022/03/12 02:06:21;;;;;;;17.02;7.93;;;;;;;0.41;50.58;102005.44;4929467;29;20039;-78
2022/03/12 02:08:53;;;;;;;18.83;7.55;;;;;;;0.37;50.35;102004.69;4935323;29;20039;-78
2022/03/12 02:11:27;;;;;;;15.98;7.68;;;;;;;0.29;50.58;102003.28;4918353;29;20089;-78
2022/03/12 02:14:08;;;;;;;19.15;8.05;;;;;;;0.34;50.70;102006.53;4931452;29;20043;-77
2022/03/12 02:16:34;;;;;;;17.83;7.93;;;;;;;0.39;50.21;102007.22;4949497;28;20506;-77
2022/03/12 02:19:01;;;;;;;16.60;7.65;;;;;;;0.31;50.50;102001.47;4934474;29;20047;-78
2022/03/12 02:21:43;;;;;;;18.15;7.78;;;;;;;0.16;51.32;101995.91;4948850;28;20398;-78
2022/03/12 02:24:15;;;;;;;18.73;8.02;;;;;;;0.11;51.27;101996.94;4949349;29;20047;-78
2022/03/12 02:26:43;;;;;;;15.55;8.20;;;;;;;0.08;51.30;101987.56;4948535;28;20043;-80
2022/03/12 02:29:15;;;;;;;19.48;7.85;;;;;;;0.13;51.05;101998.59;4950349;28;20425;-79
2022/03/12 02:31:45;;;;;;;15.73;8.15;;;;;;;-0.01;51.90;101980.94;4949123;29;20498;-77
2022/03/12 02:34:11;;;;;;;15.95;8.68;;;;;;;0.08;51.09;101987.56;4919512;29;20553;-77
2022/03/12 02:36:39;;;;;;;17.02;7.90;;;;;;;0.01;51.45;101980.06;4945181;29;20050;-78
2022/03/12 02:39:05;;;;;;;13.75;7.63;;;;;;;-0.06;51.53;101959.63;4934991;29;20043;-78
2022/03/12 02:41:31;;;;;;;18.02;8.25;;;;;;;-0.03;50.99;101972.41;4933000;29;20056;-80
2022/03/12 02:43:57;;;;;;;14.18;7.88;;;;;;;0.07;50.74;101983.28;4933659;28;20539;-77
2022/03/12 02:46:28;;;;;;;15.27;8.10;;;;;;;-0.02;50.40;101981.00;4933307;29;20039;-77
2022/03/12 02:48:56;;;;;;;13.18;7.10;;;;;;;-0.01;50.40;101982.69;4933226;29;20032;-78
2022/03/12 02:51:22;;;;;;;16.85;8.43;;;;;;;-0.07;51.29;101981.16;4931607;29;20106;-78
2022/03/12 02:53:53;;;;;;;17.58;7.78;;;;;;;-0.15;51.49;101979.69;4932322;29;20039;-77
2022/03/12 02:56:19;;;;;;;16.85;7.10;;;;;;;-0.18;51.66;101975.47;4927110;29;20040;-77
2022/03/12 02:58:45;;;;;;;16.65;7.97;;;;;;;-0.26;51.64;101967.97;4948525;29;20445;-77
2022/03/12 03:01:14;;;;;;;17.02;8.07;;;;;;;-0.26;51.66;101964.56;4932552;29;20040;-77
2022/03/12 03:03:42;;;;;;;21.15;8.57;;;;;;;-0.15;51.19;101972.81;4933422;29;20035;-79
2022/03/12 03:06:08;;;;;;;13.15;7.35;;;;;;;-0.22;51.65;101971.31;4929306;28;20495;-78
2022/03/12 03:08:36;;;;;;;16.00;7.95;;;;;;;-0.25;51.66;101972.22;4927401;29;20049;-77
2022/03/12 03:11:09;;;;;;;17.33;7.90;;;;;;;-0.36;51.74;101952.81;4928295;29;20032;-80
2022/03/12 03:13:37;;;;;;;20.30;8.00;;;;;;;-0.38;51.58;101952.88;4916421;28;20383;-78
2022/03/12 03:16:07;;;;;;;13.25;7.28;;;;;;;-0.40;51.70;101957.22;4929539;29;20040;-78
2022/03/12 03:18:38;;;;;;;12.18;6.75;;;;;;;-0.25;51.01;101968.81;4948267;29;20090;-77
2022/03/12 03:21:07;;;;;;;16.40;8.23;;;;;;;-0.25;51.33;101967.06;4935162;29;20126;-79
2022/03/12 03:23:33;;;;;;;17.60;7.75;;;;;;;-0.31;51.25;101971.59;4931893;29;20032;-79
2022/03/12 03:26:00;;;;;;;14.88;7.53;;;;;;;-0.44;51.94;101955.63;4947873;28;20571;-79
2022/03/12 03:28:27;;;;;;;17.85;7.72;;;;;;;-0.29;50.80;101968.06;4930020;29;20666;-78
2022/03/12 03:30:53;;;;;;;15.82;7.60;;;;;;;-0.34;51.07;101963.94;4933336;29;20038;-80
2022/03/12 03:33:21;;;;;;;15.45;7.80;;;;;;;-0.32;51.00;101957.00;4931381;29;20040;-78
2022/03/12 03:35:47;;;;;;;13.18;7.50;;;;;;;-0.32;50.82;101969.88;4947845;28;20486;-78
2022/03/12 03:38:14;;;;;;;17.27;8.68;;;;;;;-0.50;52.21;101966.13;4931820;29;20043;-78
2022/03/12 03:40:41;;;;;;;14.07;7.53;;;;;;;-0.53;51.04;101959.31;4942640;29;20075;-78
2022/03/12 03:43:09;;;;;;;13.52;7.20;;;;;;;-0.42;50.82;101966.75;4948541;29;20399;-79
2022/03/12 03:45:35;;;;;;;15.93;7.38;;;;;;;-0.51;51.29;101956.72;4932167;29;20122;-79
2022/03/12 03:48:01;;;;;;;16.88;8.50;;;;;;;-0.48;50.29;101961.78;4932978;29;20123;-79
2022/03/12 03:50:27;;;;;;;13.50;7.55;;;;;;;-0.49;51.08;101960.06;4931838;28;20044;-81
2022/03/12 03:52:57;;;;;;;14.43;7.80;;;;;;;-0.44;50.25;101960.78;4919125;29;20032;-80
2022/03/12 03:55:26;;;;;;;15.65;7.68;;;;;;;-0.55;50.45;101945.63;4940010;29;20054;-80
2022/03/12 03:57:53;;;;;;;15.18;8.00;;;;;;;-0.58;51.04;101948.31;4923892;29;20043;-79
2022/03/12 04:00:22;;;;;;;16.55;8.10;;;;;;;-0.53;50.42;101961.91;4930922;29;20050;-78
2022/03/12 04:03:02;;;;;;;13.30;7.63;;;;;;;-0.56;50.79;101956.03;4917527;29;20100;-84
2022/03/12 04:05:36;;;;;;;16.33;8.00;;;;;;;-0.62;51.25;101949.31;4948601;29;20051;-80
2022/03/12 04:08:07;;;;;;;14.18;7.47;;;;;;;-0.57;50.72;101968.03;4915109;29;20451;-79
2022/03/12 04:10:34;;;;;;;15.25;7.32;;;;;;;-0.56;50.62;101959.44;4934565;29;20126;-80
2022/03/12 04:13:00;;;;;;;15.23;7.38;;;;;;;-0.50;50.95;101969.56;4945849;29;20279;-81
2022/03/12 04:15:26;;;;;;;18.23;7.95;;;;;;;-0.57;51.23;101968.03;4928779;29;20062;-80
2022/03/12 04:17:53;;;;;;;17.55;8.70;;;;;;;-0.62;51.39;101964.78;4945823;28;20031;-79
2022/03/12 04:20:22;;;;;;;15.63;7.97;;;;;;;-0.74;52.19;101947.91;4927355;28;20036;-78
2022/03/12 04:22:50;;;;;;;16.23;8.30;;;;;;;-0.78;52.17;101959.19;4930375;29;20054;-79
2022/03/12 04:25:17;;;;;;;14.93;7.68;;;;;;;-0.66;51.97;101963.16;4928799;29;20043;-78
2022/03/12 04:27:44;;;;;;;18.38;7.97;;;;;;;-0.76;52.02;101959.16;4949756;28;20065;-79
2022/03/12 04:30:17;;;;;;;17.58;7.63;;;;;;;-0.77;52.12;101965.19;4931008;29;20039;-79
2022/03/12 04:32:43;;;;;;;11.88;7.70;;;;;;;-0.81;51.86;101962.72;4950075;29;20040;-79
2022/03/12 04:35:09;;;;;;;15.82;8.18;;;;;;;-0.89;52.29;101950.94;4949346;28;20458;-80
2022/03/12 04:37:36;;;;;;;16.73;8.13;;;;;;;-0.88;52.36;101957.78;4944386;29;20078;-78
2022/03/12 04:40:10;;;;;;;15.23;7.30;;;;;;;-0.84;52.29;101959.38;4933822;29;20066;-80
2022/03/12 04:42:42;;;;;;;14.27;7.65;;;;;;;-0.90;52.14;101962.97;4949340;28;20035;-79
2022/03/12 04:45:10;;;;;;;14.82;8.10;;;;;;;-0.96;52.79;101973.44;4933120;29;20486;-79
2022/03/12 04:47:36;;;;;;;13.70;8.15;;;;;;;-1.01;53.36;101986.44;4938092;29;20795;-79
2022/03/12 04:50:04;;;;;;;13.13;7.82;;;;;;;-0.95;52.78;101980.28;4921222;29;20046;-79
2022/03/12 04:52:30;;;;;;;17.23;8.32;;;;;;;-0.94;52.54;101979.41;4951318;28;20039;-81
2022/03/12 04:54:57;;;;;;;15.45;8.23;;;;;;;-1.02;52.75;101973.59;4915733;29;20040;-79
2022/03/12 04:57:22;;;;;;;15.77;7.90;;;;;;;-1.08;52.93;101984.06;4913399;29;20052;-80
2022/03/12 04:59:48;;;;;;;13.55;7.72;;;;;;;-1.14;54.02;101997.13;4933488;29;20075;-79
2022/03/12 05:02:13;;;;;;;15.10;7.82;;;;;;;-1.23;54.52;101999.03;4949729;29;20065;-79
2022/03/12 05:04:39;;;;;;;14.80;7.88;;;;;;;-1.26;55.12;102004.28;4933920;29;20781;-79
2022/03/12 05:07:09;;;;;;;18.83;8.10;;;;;;;-1.38;55.12;102005.41;4949607;29;20118;-78
2022/03/12 05:09:35;;;;;;;15.82;7.82;;;;;;;-1.37;55.29;102001.97;4915338;29;20046;-78
2022/03/12 05:12:05;;;;;;;17.33;7.45;;;;;;;-1.42;55.20;101990.09;4949377;29;20032;-81
2022/03/12 05:14:36;;;;;;;16.70;7.90;;;;;;;-1.39;55.44;102001.16;4932173;29;20051;-79
2022/03/12 05:17:05;;;;;;;15.68;8.30;;;;;;;-1.34;54.87;102002.78;4932446;29;20403;-79
2022/03/12 05:19:35;;;;;;;17.10;7.65;;;;;;;-1.39;54.91;102008.06;4950387;28;20032;-79
2022/03/12 05:22:01;;;;;;;14.73;7.93;;;;;;;-1.43;55.09;102004.72;4927682;29;20070;-79
2022/03/12 05:24:26;;;;;;;16.30;7.78;;;;;;;-1.42;54.67;101997.81;4948317;29;20043;-79
2022/03/12 05:26:52;;;;;;;14.65;7.82;;;;;;;-1.43;54.76;101998.69;4952459;28;20039;-78
2022/03/12 05:29:18;;;;;;;14.73;7.35;;;;;;;-1.44;54.47;102008.16;4932989;29;20545;-79
2022/03/12 05:31:43;;;;;;;15.45;7.85;;;;;;;-1.55;54.54;102001.59;4946232;28;20028;-80
2022/03/12 05:34:09;;;;;;;15.55;7.45;;;;;;;-1.48;54.26;102006.53;4943789;28;20090;-80
2022/03/12 05:36:36;;;;;;;15.65;7.75;;;;;;;-1.49;54.16;102004.00;4926510;29;20028;-80
2022/03/12 05:39:02;;;;;;;15.77;7.80;;;;;;;-1.42;54.23;102015.84;4948817;29;20035;-80
2022/03/12 05:41:29;;;;;;;14.63;7.60;;;;;;;-1.46;54.31;102004.78;4931996;29;20046;-80
2022/03/12 05:43:56;;;;;;;14.27;8.15;;;;;;;-1.55;54.71;102004.16;4930221;29;20067;-79
2022/03/12 05:46:21;;;;;;;11.77;7.05;;;;;;;-1.52;54.52;102012.66;4947064;29;20070;-79
2022/03/12 05:48:48;;;;;;;15.90;8.02;;;;;;;-1.50;54.51;102013.47;4935048;29;20027;-79
2022/03/12 05:51:14;;;;;;;15.23;7.45;;;;;;;-1.54;54.60;102006.69;4930321;29;20039;-79
2022/03/12 05:53:40;;;;;;;12.45;7.00;;;;;;;-1.57;53.44;101999.03;4953561;28;20126;-80
2022/03/12 05:56:06;;;;;;;13.77;7.15;;;;;;;-1.54;53.84;102005.84;4935463;29;20040;-79
2022/03/12 05:58:39;;;;;;;13.35;6.88;;;;;;;-1.57;53.82;102011.91;4932094;29;20569;-80
2022/03/12 06:01:06;;;;;;;15.07;7.88;;;;;;;-1.48;53.74;102016.84;4932177;29;20131;-79
2022/03/12 06:03:32;;;;;;;13.55;7.20;;;;;;;-1.45;53.29;102021.06;4947692;28;20541;-80
2022/03/12 06:05:59;;;;;;;15.35;7.25;;;;;;;-1.41;53.36;102017.53;4947240;28;20048;-80
2022/03/12 06:08:28;;;;;;;17.75;7.53;;;;;;;-1.34;53.06;102018.22;4931335;29;20047;-79
2022/03/12 06:10:55;;;;;;;13.80;7.32;;;;;;;-1.21;52.46;102017.84;4933204;29;20098;-80
2022/03/12 06:13:30;;;;;;;14.55;7.32;;;;;;;-1.23;52.32;102019.63;4925935;29;20123;-79
2022/03/12 06:16:00;;;;;;;11.75;6.90;;;;;;;-1.15;51.75;102028.88;4929852;29;20035;-79
2022/03/12 06:18:33;;;;;;;19.83;7.78;;;;;;;-1.14;52.50;102034.00;4935369;28;20047;-79
2022/03/12 06:20:59;;;;;;;14.35;7.07;;;;;;;-1.06;52.11;102036.38;4913882;29;20114;-79
2022/03/12 06:23:26;;;;;;;12.65;6.85;;;;;;;-0.99;51.24;102022.47;4916817;29;20044;-79
2022/03/12 06:25:53;;;;;;;13.18;6.97;;;;;;;-0.79;50.85;102017.63;4948846;28;20050;-80
2022/03/12 06:28:19;;;;;;;12.63;6.97;;;;;;;-0.68;50.48;102029.34;4933591;29;20039;-79
2022/03/12 06:30:47;;;;;;;13.02;6.97;;;;;;;-0.55;49.68;102041.00;4948386;29;20460;-78
2022/03/12 06:33:15;;;;;;;15.85;7.43;;;;;;;-0.45;49.63;102044.19;4935035;29;20047;-80
2022/03/12 06:35:42;;;;;;;15.07;7.80;;;;;;;-0.39;50.01;102038.84;4931273;29;20046;-79
2022/03/12 06:38:10;;;;;;;14.88;6.60;;;;;;;-0.30;49.37;102037.72;4940998;29;20099;-79
2022/03/12 06:40:36;;;;;;;13.05;6.93;;;;;;;-0.25;49.37;102043.59;4946857;28;20062;-78
2022/03/12 06:43:19;;;;;;;14.00;6.50;;;;;;;-0.19;49.26;102053.72;4942401;28;20122;-79
2022/03/12 06:45:49;;;;;;;12.98;6.75;;;;;;;-0.11;49.92;102061.25;4930283;28;20159;-80
2022/03/12 06:48:16;;;;;;;12.85;6.60;;;;;;;-0.06;49.90;102061.94;4954650;28;20036;-79
2022/03/12 06:50:42;;;;;;;12.55;6.80;;;;;;;0.08;47.97;102061.56;4941960;29;20039;-78
2022/03/12 06:53:08;;;;;;;11.55;6.57;;;;;;;0.10;47.98;102060.59;4936777;29;20031;-80
2022/03/12 06:55:34;;;;;;;15.43;6.35;;;;;;;0.21;47.79;102052.53;4949475;28;20040;-78
2022/03/12 06:57:59;;;;;;;13.02;7.20;;;;;;;0.34;47.32;102045.25;4917047;29;20034;-80
2022/03/12 07:00:28;;;;;;;13.75;7.10;;;;;;;0.43;47.49;102052.69;4930680;29;20073;-79
2022/03/12 07:02:55;;;;;;;12.80;7.15;;;;;;;0.55;46.54;102059.22;4928087;29;20036;-80
2022/03/12 07:05:22;;;;;;;12.82;7.00;;;;;;;0.66;45.82;102064.88;4930414;29;20487;-80
2022/03/12 07:07:50;;;;;;;10.57;6.70;;;;;;;0.68;45.03;102068.25;4929885;29;20063;-79
2022/03/12 07:10:16;;;;;;;12.13;6.63;;;;;;;0.75;46.24;102074.91;4933694;29;20074;-79
2022/03/12 07:12:45;;;;;;;13.85;6.93;;;;;;;0.83;45.44;102066.91;4932153;29;20063;-79
2022/03/12 07:15:11;;;;;;;13.98;6.47;;;;;;;0.99;45.26;102066.38;4950420;28;20046;-79
2022/03/12 07:17:37;;;;;;;17.65;7.07;;;;;;;1.03;44.27;102062.81;4935004;29;20043;-79
2022/03/12 07:20:05;;;;;;;11.63;6.93;;;;;;;1.04;44.85;102052.41;4935495;28;20042;-78
2022/03/12 07:22:31;;;;;;;12.23;6.60;;;;;;;1.30;44.54;102074.78;4933470;29;20198;-79
2022/03/12 07:24:58;;;;;;;11.30;6.53;;;;;;;1.37;43.65;102070.22;4950308;29;20080;-80
2022/03/12 07:27:24;;;;;;;11.65;6.68;;;;;;;1.35;43.94;102064.25;4933121;29;20039;-79
2022/03/12 07:29:51;;;;;;;11.60;6.57;;;;;;;1.47;43.03;102053.50;4933127;29;20086;-80
2022/03/12 07:32:17;;;;;;;13.10;6.93;;;;;;;1.59;42.74;102067.72;4931682;29;20678;-79
2022/03/12 07:34:43;;;;;;;12.05;6.25;;;;;;;1.70;42.80;102069.91;4947930;29;20028;-78
2022/03/12 07:37:11;;;;;;;10.85;6.30;;;;;;;1.90;43.15;102080.38;4932289;29;20032;-79
2022/03/12 07:39:37;;;;;;;11.85;6.18;;;;;;;1.98;43.54;102074.03;4940536;28;20039;-79
2022/03/12 07:42:04;;;;;;;10.77;5.88;;;;;;;2.23;42.35;102079.97;4929331;29;20086;-79
2022/03/12 07:44:30;;;;;;;13.63;6.43;;;;;;;2.31;41.70;102083.09;4946592;28;20399;-79
2022/03/12 07:46:57;;;;;;;18.77;6.25;;;;;;;2.34;40.47;102075.19;4934715;29;20502;-79
2022/03/12 07:49:23;;;;;;;10.73;5.65;;;;;;;2.44;40.53;102067.91;4926810;29;20059;-79
2022/03/12 07:51:50;;;;;;;13.45;6.28;;;;;;;2.44;40.32;102062.72;4930247;29;20032;-79
2022/03/12 07:54:16;;;;;;;11.00;6.00;;;;;;;2.67;40.23;102079.91;4943674;28;20048;-79
2022/03/12 07:56:42;;;;;;;11.90;5.10;;;;;;;2.73;39.59;102079.69;4937158;29;20048;-78
2022/03/12 07:59:09;;;;;;;10.70;5.55;;;;;;;2.76;39.56;102088.25;4932533;29;20087;-78
2022/03/12 08:01:35;;;;;;;11.68;5.00;;;;;;;2.93;40.71;102084.03;4934386;29;20114;-80
2022/03/12 08:04:02;;;;;;;9.48;5.10;;;;;;;3.14;40.88;102085.78;4949494;29;20065;-80
2022/03/12 08:06:28;;;;;;;11.90;5.65;;;;;;;3.25;39.35;102068.84;4931735;29;20565;-78
2022/03/12 08:08:55;;;;;;;11.10;5.18;;;;;;;3.22;38.43;102087.16;4950562;29;20031;-78
2022/03/12 08:11:30;;;;;;;13.68;5.75;;;;;;;3.42;39.12;102078.50;4949320;29;20035;-78
2022/03/12 08:14:02;;;;;;;10.05;5.00;;;;;;;3.48;38.62;102078.25;4945374;29;20035;-79
2022/03/12 08:16:29;;;;;;;9.55;5.40;;;;;;;3.73;38.19;102082.34;4937278;28;20043;-79
2022/03/12 08:18:56;;;;;;;13.73;5.43;;;;;;;3.81;39.01;102082.00;4934993;29;20044;-79
2022/03/12 08:21:22;;;;;;;8.05;4.70;;;;;;;3.89;37.65;102078.09;4950031;29;20975;-79
2022/03/12 08:23:49;;;;;;;8.52;5.00;;;;;;;4.11;38.47;102084.94;4948009;29;20031;-78
2022/03/12 08:26:16;;;;;;;9.88;5.10;;;;;;;4.24;36.94;102086.03;4938386;29;20651;-80
2022/03/12 08:28:43;;;;;;;7.85;4.88;;;;;;;4.36;37.35;102086.38;4931114;28;20074;-78
2022/03/12 08:31:08;;;;;;;9.32;5.00;;;;;;;4.29;36.92;102078.00;4933818;29;20154;-79
2022/03/12 08:33:35;;;;;;;11.45;5.20;;;;;;;4.54;37.48;102095.00;4937517;29;20048;-79
2022/03/12 08:36:02;;;;;;;10.02;5.28;;;;;;;4.53;35.77;102081.19;4950311;28;20037;-80
2022/03/12 08:38:28;;;;;;;14.40;5.57;;;;;;;4.38;36.16;102092.31;4930836;29;20122;-80
2022/03/12 08:40:54;;;;;;;10.63;5.30;;;;;;;4.53;37.86;102094.19;4930389;29;20065;-79
2022/03/12 08:43:21;;;;;;;7.63;4.60;;;;;;;4.84;37.71;102092.66;4949961;28;20071;-79
2022/03/12 08:45:48;;;;;;;11.02;5.05;;;;;;;5.08;36.50;102098.41;4915462;29;20046;-81
2022/03/12 08:48:14;;;;;;;10.85;5.00;;;;;;;5.12;36.55;102097.31;4935181;29;20047;-80
2022/03/12 08:50:43;;;;;;;9.75;5.55;;;;;;;5.00;35.90;102105.75;4948957;29;20554;-80
2022/03/12 08:53:10;;;;;;;8.02;4.68;;;;;;;4.99;37.25;102093.66;4905085;29;20119;-79
2022/03/12 08:55:36;;;;;;;8.73;5.20;;;;;;;4.75;35.62;102100.94;4952387;28;20510;-79
2022/03/12 08:58:02;;;;;;;9.18;4.65;;;;;;;4.41;35.65;102093.03;4922618;29;20039;-80
2022/03/12 09:00:27;;;;;;;10.55;5.30;;;;;;;4.17;36.95;102082.03;4929363;29;20202;-79
2022/03/12 09:02:53;;;;;;;12.82;5.05;;;;;;;4.15;36.50;102090.81;4939701;29;20035;-80
2022/03/12 09:05:19;;;;;;;8.23;4.85;;;;;;;4.16;37.31;102101.09;4928220;28;20031;-79
2022/03/12 09:07:45;;;;;;;8.48;4.85;;;;;;;4.05;36.07;102088.66;4928295;29;20032;-80
2022/03/12 09:10:12;;;;;;;9.07;5.43;;;;;;;4.04;37.84;102092.16;4948657;28;20032;-79
2022/03/12 09:12:40;;;;;;;8.63;5.07;;;;;;;4.08;37.95;102092.84;4948894;29;20462;-80
2022/03/12 09:15:07;;;;;;;8.95;4.85;;;;;;;4.06;38.55;102085.13;4945592;28;20038;-79
2022/03/12 09:17:33;;;;;;;9.15;4.75;;;;;;;4.03;38.06;102081.81;4933751;29;20537;-79
2022/03/12 09:19:59;;;;;;;9.05;4.60;;;;;;;4.00;37.74;102079.38;4927825;29;20447;-79
2022/03/12 09:22:25;;;;;;;6.45;3.90;;;;;;;3.92;38.24;102079.75;4933898;29;20518;-79
2022/03/12 09:24:50;;;;;;;11.55;4.97;;;;;;;3.94;38.35;102084.84;4933559;29;20053;-78
2022/03/12 09:27:16;;;;;;;7.95;4.70;;;;;;;3.90;38.47;102069.44;4951079;28;20036;-78
2022/03/12 09:29:42;;;;;;;9.90;5.15;;;;;;;3.95;38.14;102070.97;4945377;28;20040;-80
2022/03/12 09:32:08;;;;;;;9.73;5.30;;;;;;;4.03;39.25;102074.91;4933894;29;20398;-80
2022/03/12 09:34:35;;;;;;;8.95;4.70;;;;;;;4.17;36.87;102081.19;4935464;29;20060;-79
2022/03/12 09:37:05;;;;;;;6.85;4.22;;;;;;;4.31;37.81;102068.38;4942675;28;20039;-79
2022/03/12 09:39:31;;;;;;;13.63;5.00;;;;;;;4.52;37.72;102087.31;4930754;29;20044;-79
2022/03/12 09:41:58;;;;;;;11.70;5.50;;;;;;;4.81;38.68;102080.69;4941693;29;20042;-78
2022/03/12 09:44:24;;;;;;;8.45;4.70;;;;;;;4.99;37.65;102063.31;4922453;29;20497;-79
2022/03/12 09:46:50;;;;;;;13.50;5.43;;;;;;;5.33;36.94;102084.13;4933779;29;20035;-78
2022/03/12 09:49:16;;;;;;;8.75;5.13;;;;;;;5.38;35.84;102075.16;4936299;29;20043;-79
2022/03/12 09:51:43;;;;;;;12.18;5.03;;;;;;;5.25;35.68;102071.53;4954608;28;20039;-78
2022/03/12 09:54:13;;;;;;;9.48;5.20;;;;;;;5.30;37.59;102072.13;4917074;29;20402;-78
2022/03/12 09:56:39;;;;;;;9.68;5.15;;;;;;;5.31;36.35;102070.38;4947294;29;20114;-79
2022/03/12 09:59:07;;;;;;;8.90;5.07;;;;;;;5.13;35.46;102062.59;4919542;29;20074;-78
2022/03/12 10:01:33;;;;;;;10.48;5.50;;;;;;;5.33;35.93;102072.00;4945003;28;20063;-79
2022/03/12 10:03:58;;;;;;;7.30;4.95;;;;;;;5.40;35.92;102068.13;4950545;28;20106;-78
2022/03/12 10:06:24;;;;;;;8.23;4.55;;;;;;;5.45;35.48;102065.31;4952697;28;20070;-79
2022/03/12 10:08:50;;;;;;;28.30;5.50;;;;;;;5.33;34.95;102053.78;4952291;28;20040;-79
2022/03/12 10:11:17;;;;;;;17.73;5.43;;;;;;;5.35;35.20;102069.28;4914883;29;20475;-78
2022/03/12 10:13:42;;;;;;;9.57;4.97;;;;;;;5.58;35.41;102065.50;4933266;28;20097;-79
2022/03/12 10:16:09;;;;;;;8.50;4.80;;;;;;;5.63;34.61;102055.66;4934932;29;20755;-77
2022/03/12 10:18:36;;;;;;;8.52;4.70;;;;;;;5.66;34.64;102048.53;4908802;29;20434;-79
2022/03/12 10:21:02;;;;;;;8.00;4.82;;;;;;;5.89;35.04;102051.66;4936510;28;20130;-78
2022/03/12 10:23:28;;;;;;;9.15;4.60;;;;;;;6.14;35.22;102045.97;4950311;29;20035;-79
2022/03/12 10:25:53;;;;;;;8.20;4.60;;;;;;;6.45;33.66;102040.78;4954606;28;20036;-78
2022/03/12 10:28:19;;;;;;;10.43;5.43;;;;;;;6.63;33.18;102053.59;4916476;29;20044;-78
2022/03/12 10:30:45;;;;;;;11.57;4.85;;;;;;;6.73;33.40;102055.69;4945446;29;20518;-78
2022/03/12 10:33:20;;;;;;;9.70;4.95;;;;;;;6.85;32.65;102051.50;4933512;29;20074;-78
2022/03/12 10:35:46;;;;;;;7.90;4.72;;;;;;;6.97;32.79;102059.44;4937341;29;20039;-78
2022/03/12 10:38:12;;;;;;;8.77;5.10;;;;;;;7.13;33.47;102059.38;4949674;28;20735;-78
2022/03/12 10:40:38;;;;;;;8.23;4.85;;;;;;;7.35;34.36;102061.53;4934146;29;20086;-78
2022/03/12 10:43:12;;;;;;;10.95;5.47;;;;;;;7.39;32.18;102056.97;4949687;29;20043;-80
2022/03/12 10:45:47;;;;;;;8.98;5.00;;;;;;;7.18;32.61;102052.13;4947817;29;20031;-79
2022/03/12 10:48:16;;;;;;;9.13;5.25;;;;;;;7.29;32.94;102051.47;4934776;29;20063;-79
2022/03/12 10:50:45;;;;;;;10.38;5.13;;;;;;;7.34;32.03;102051.19;4934070;29;20046;-78
2022/03/12 10:53:12;;;;;;;10.98;5.45;;;;;;;7.48;32.57;102045.09;4932748;29;20074;-78
2022/03/12 10:55:41;;;;;;;11.20;5.47;;;;;;;7.73;33.38;102040.03;4934514;29;20471;-79
2022/03/12 10:58:23;;;;;;;9.27;5.15;;;;;;;7.65;32.40;102046.66;4949710;29;20560;-79
2022/03/12 11:00:57;;;;;;;9.90;5.10;;;;;;;7.59;31.46;102048.75;4933241;29;20035;-78
2022/03/12 11:03:25;;;;;;;9.10;4.90;;;;;;;7.74;31.96;102041.72;4932220;29;20709;-78
2022/03/12 11:05:54;;;;;;;10.65;5.22;;;;;;;7.84;31.29;102033.31;4946536;28;20028;-79
2022/03/12 11:08:23;;;;;;;7.13;4.72;;;;;;;7.70;31.64;102048.06;4933930;29;20051;-79
2022/03/12 11:11:01;;;;;;;9.38;4.50;;;;;;;7.94;32.32;102052.69;4946989;29;20035;-78
2022/03/12 11:13:34;;;;;;;9.32;5.03;;;;;;;8.19;33.33;102051.94;4929216;28;20095;-78
2022/03/12 11:16:14;;;;;;;11.68;5.25;;;;;;;8.26;31.76;102044.56;4931436;29;20047;-79
2022/03/12 11:18:52;;;;;;;10.68;5.30;;;;;;;8.04;30.63;102039.88;4938164;29;21670;-78
2022/03/12 11:21:30;;;;;;;10.48;4.97;;;;;;;8.22;31.75;102037.88;4931833;29;20039;-79
2022/03/12 11:23:58;;;;;;;13.10;5.07;;;;;;;8.16;31.01;102034.69;4945320;29;20023;-80
2022/03/12 11:26:24;;;;;;;12.27;5.03;;;;;;;8.26;31.50;102034.09;4941708;29;20039;-79